createdAt,value
2022-12-18T00:02:07.772Z,37.80
2022-12-18T00:04:34.827Z,38.55
2022-12-18T00:07:01.837Z,37.65
2022-12-18T00:09:31.183Z,37.35
2022-12-18T00:14:42.851Z,38.75
2022-12-18T00:17:09.900Z,40.58
2022-12-18T00:19:36.644Z,36.95
2022-12-18T00:22:03.486Z,39.13
2022-12-18T00:24:30.210Z,36.88
2022-12-18T00:26:56.807Z,38.67
2022-12-18T00:29:23.361Z,37.95
2022-12-18T00:31:50.109Z,37.38
2022-12-18T00:34:16.765Z,38.95
2022-12-18T00:36:43.408Z,40.45
2022-12-18T00:39:11.775Z,38.55
2022-12-18T00:42:10.928Z,41.70
2022-12-18T00:44:37.490Z,42.67
2022-12-18T00:47:04.119Z,41.55
2022-12-18T00:49:31.277Z,44.15
2022-12-18T00:51:57.864Z,45.10
2022-12-18T00:54:24.734Z,46.88
2022-12-18T00:56:51.436Z,41.20
2022-12-18T00:59:19.340Z,42.20
2022-12-18T01:01:46.773Z,44.17
2022-12-18T01:04:13.668Z,43.50
2022-12-18T01:06:40.779Z,45.17
2022-12-18T01:09:07.775Z,44.92
2022-12-18T01:11:34.877Z,43.53
2022-12-18T01:14:01.885Z,43.05
2022-12-18T01:16:28.970Z,44.85
2022-12-18T01:18:56.354Z,45.05
2022-12-18T01:21:24.977Z,42.03
2022-12-18T01:23:55.725Z,44.10
2022-12-18T01:26:22.867Z,39.55
2022-12-18T01:28:49.888Z,42.88
2022-12-18T01:31:21.747Z,43.33
2022-12-18T01:33:48.803Z,40.20
2022-12-18T01:36:16.749Z,38.28
2022-12-18T01:38:43.800Z,37.00
2022-12-18T01:41:11.631Z,42.17
2022-12-18T01:43:46.052Z,39.40
2022-12-18T01:46:13.307Z,41.60
2022-12-18T01:48:40.593Z,40.92
2022-12-18T01:51:09.388Z,38.80
2022-12-18T01:53:38.023Z,39.78
2022-12-18T01:56:05.494Z,41.53
2022-12-18T01:58:38.601Z,39.20
2022-12-18T02:01:05.720Z,40.38
2022-12-18T02:03:32.789Z,40.33
2022-12-18T02:05:59.755Z,39.97
2022-12-18T02:08:32.110Z,39.85
2022-12-18T02:10:59.089Z,37.28
2022-12-18T02:13:28.856Z,37.20
2022-12-18T02:16:00.489Z,37.20
2022-12-18T02:18:47.767Z,38.50
2022-12-18T02:21:34.572Z,36.10
2022-12-18T02:24:17.560Z,37.42
2022-12-18T02:26:51.984Z,40.08
2022-12-18T02:29:32.725Z,36.92
2022-12-18T02:32:00.411Z,36.08
2022-12-18T02:34:32.822Z,40.97
2022-12-18T02:37:01.680Z,41.70
2022-12-18T02:39:30.309Z,40.47
2022-12-18T02:41:58.364Z,39.92
2022-12-18T02:44:25.360Z,40.30
2022-12-18T02:46:53.386Z,41.38
2022-12-18T02:49:34.770Z,42.80
2022-12-18T02:52:01.747Z,39.72
2022-12-18T02:54:54.937Z,40.63
2022-12-18T02:57:31.127Z,39.27
2022-12-18T03:00:08.999Z,39.42
2022-12-18T03:02:36.165Z,41.05
2022-12-18T03:05:15.753Z,42.08
2022-12-18T03:07:52.328Z,39.30
2022-12-18T03:10:21.428Z,40.30
2022-12-18T03:12:51.638Z,43.00
2022-12-18T03:15:21.086Z,44.10
2022-12-18T03:17:50.582Z,41.72
2022-12-18T03:20:20.354Z,41.80
2022-12-18T03:22:48.646Z,41.13
2022-12-18T03:25:16.445Z,41.72
2022-12-18T03:27:46.495Z,40.45
2022-12-18T03:30:14.543Z,42.08
2022-12-18T03:32:48.368Z,41.58
2022-12-18T03:35:19.100Z,42.05
2022-12-18T03:37:46.258Z,41.88
2022-12-18T03:40:13.424Z,40.72
2022-12-18T03:43:15.737Z,40.78
2022-12-18T03:45:45.279Z,41.00
2022-12-18T03:48:21.992Z,39.70
2022-12-18T03:50:59.649Z,42.00
2022-12-18T03:53:30.573Z,42.83
2022-12-18T03:55:58.318Z,43.55
2022-12-18T03:58:27.032Z,43.90
2022-12-18T04:00:55.411Z,43.10
2022-12-18T04:03:26.454Z,41.95
2022-12-18T04:05:55.816Z,41.95
2022-12-18T04:08:23.361Z,44.17
2022-12-18T04:10:50.363Z,45.30
2022-12-18T04:13:30.722Z,42.35
2022-12-18T04:15:58.034Z,41.67
2022-12-18T04:18:25.088Z,45.03
2022-12-18T04:20:52.104Z,40.55
2022-12-18T04:23:19.161Z,40.67
2022-12-18T04:25:46.804Z,41.17
2022-12-18T04:28:13.815Z,39.28
2022-12-18T04:30:40.979Z,45.05
2022-12-18T04:33:12.055Z,45.20
2022-12-18T04:35:39.139Z,45.10
2022-12-18T04:38:07.459Z,39.13
2022-12-18T04:40:34.489Z,40.38
2022-12-18T04:43:01.562Z,41.03
2022-12-18T04:45:28.614Z,39.58
2022-12-18T04:47:55.647Z,41.25
2022-12-18T04:50:22.692Z,41.92
2022-12-18T04:52:49.680Z,45.45
2022-12-18T04:55:16.822Z,42.10
2022-12-18T04:57:43.821Z,41.38
2022-12-18T05:00:11.200Z,40.70
2022-12-18T05:02:38.287Z,42.17
2022-12-18T05:05:05.608Z,41.35
2022-12-18T05:07:32.610Z,40.10
2022-12-18T05:09:59.635Z,38.67
2022-12-18T05:12:26.642Z,43.40
2022-12-18T05:14:53.633Z,38.95
2022-12-18T05:17:20.657Z,39.38
2022-12-18T05:19:47.730Z,36.40
2022-12-18T05:22:14.809Z,38.88
2022-12-18T05:24:41.996Z,41.97
2022-12-18T05:27:09.049Z,39.45
2022-12-18T05:29:36.065Z,38.90
2022-12-18T05:32:03.078Z,38.55
2022-12-18T05:34:30.071Z,36.90
2022-12-18T05:36:57.167Z,36.35
2022-12-18T05:39:24.220Z,36.63
2022-12-18T05:41:51.205Z,34.78
2022-12-18T05:44:18.270Z,39.25
2022-12-18T05:46:45.372Z,37.42
2022-12-18T05:49:12.402Z,38.00
2022-12-18T05:51:39.424Z,35.58
2022-12-18T05:54:06.695Z,37.22
2022-12-18T05:56:34.396Z,37.15
2022-12-18T05:59:01.468Z,34.25
2022-12-18T06:01:28.624Z,35.70
2022-12-18T06:03:56.711Z,34.97
2022-12-18T06:06:25.494Z,34.90
2022-12-18T06:08:52.750Z,34.05
2022-12-18T06:11:27.477Z,35.55
2022-12-18T06:13:58.684Z,33.60
2022-12-18T06:16:27.043Z,37.10
2022-12-18T06:18:54.250Z,35.28
2022-12-18T06:21:21.291Z,35.42
2022-12-18T06:23:48.495Z,35.38
2022-12-18T06:26:15.859Z,33.03
2022-12-18T06:28:43.004Z,33.33
2022-12-18T06:31:10.878Z,34.35
2022-12-18T06:33:38.847Z,34.25
2022-12-18T06:36:10.518Z,35.28
2022-12-18T06:38:39.185Z,34.47
2022-12-18T06:41:10.415Z,35.65
2022-12-18T06:43:37.859Z,33.92
2022-12-18T06:46:06.075Z,36.00
2022-12-18T06:48:33.502Z,35.22
2022-12-18T06:51:00.975Z,36.75
2022-12-18T06:53:28.508Z,34.55
2022-12-18T06:56:06.390Z,34.25
2022-12-18T06:58:36.472Z,34.85
2022-12-18T07:01:04.581Z,36.40
2022-12-18T07:03:31.783Z,33.63
2022-12-18T07:05:58.867Z,33.95
2022-12-18T07:08:25.982Z,35.03
2022-12-18T07:10:56.223Z,31.95
2022-12-18T07:13:23.729Z,34.22
2022-12-18T07:15:51.024Z,33.38
2022-12-18T07:18:18.131Z,31.25
2022-12-18T07:20:45.141Z,34.40
2022-12-18T07:23:13.046Z,32.88
2022-12-18T07:25:40.702Z,32.53
2022-12-18T07:28:08.861Z,31.80
2022-12-18T07:30:39.293Z,33.72
2022-12-18T07:33:06.384Z,34.83
2022-12-18T07:35:34.363Z,33.78
2022-12-18T07:38:01.401Z,34.92
2022-12-18T07:40:28.410Z,35.65
2022-12-18T07:42:55.424Z,35.63
2022-12-18T07:45:22.442Z,33.42
2022-12-18T07:47:49.418Z,35.78
2022-12-18T07:50:16.535Z,35.33
2022-12-18T07:52:43.544Z,34.67
2022-12-18T07:55:10.652Z,32.50
2022-12-18T07:57:57.659Z,33.70
2022-12-18T08:00:24.815Z,33.13
2022-12-18T08:02:51.940Z,31.98
2022-12-18T08:05:19.010Z,32.00
2022-12-18T08:07:46.010Z,31.58
2022-12-18T08:10:13.088Z,32.58
2022-12-18T08:12:40.405Z,34.47
2022-12-18T08:15:07.713Z,31.83
2022-12-18T08:17:34.733Z,32.88
2022-12-18T08:20:02.533Z,33.33
2022-12-18T08:22:29.621Z,33.15
2022-12-18T08:24:56.630Z,33.95
2022-12-18T08:27:30.771Z,33.00
2022-12-18T08:29:58.503Z,32.47
2022-12-18T08:32:26.531Z,31.30
2022-12-18T08:34:53.657Z,32.53
2022-12-18T08:37:20.676Z,31.08
2022-12-18T08:39:47.690Z,30.77
2022-12-18T08:42:33.335Z,31.48
2022-12-18T08:45:00.373Z,30.50
2022-12-18T08:47:27.536Z,33.35
2022-12-18T08:49:54.616Z,29.77
2022-12-18T08:52:21.642Z,30.38
2022-12-18T08:54:48.626Z,30.92
2022-12-18T08:57:15.723Z,29.77
2022-12-18T08:59:42.742Z,28.92
2022-12-18T09:02:13.492Z,27.83
2022-12-18T09:04:40.800Z,29.73
2022-12-18T09:07:07.824Z,29.35
2022-12-18T09:09:34.845Z,28.48
2022-12-18T09:12:01.911Z,28.85
2022-12-18T09:14:29.002Z,32.08
2022-12-18T09:16:56.142Z,31.02
2022-12-18T09:19:23.200Z,29.67
2022-12-18T09:21:50.213Z,31.95
2022-12-18T09:24:17.508Z,30.75
2022-12-18T09:26:46.954Z,29.83
2022-12-18T09:29:15.439Z,28.33
2022-12-18T09:31:43.233Z,28.88
2022-12-18T09:34:10.239Z,28.15
2022-12-18T09:36:37.354Z,26.60
2022-12-18T09:39:08.057Z,27.75
2022-12-18T09:41:38.690Z,27.10
2022-12-18T09:44:20.898Z,28.67
2022-12-18T09:46:52.248Z,25.58
2022-12-18T09:49:22.105Z,24.17
2022-12-18T09:52:15.905Z,25.52
2022-12-18T09:54:44.576Z,25.35
2022-12-18T09:57:15.747Z,29.58
2022-12-18T09:59:43.736Z,27.17
2022-12-18T10:02:18.147Z,26.20
2022-12-18T10:04:45.971Z,25.98
2022-12-18T10:07:16.083Z,26.17
2022-12-18T10:09:59.598Z,26.63
2022-12-18T10:13:04.098Z,24.83
2022-12-18T10:15:51.140Z,25.83
2022-12-18T10:18:21.914Z,27.58
2022-12-18T10:20:54.761Z,25.20
2022-12-18T10:23:21.743Z,26.58
2022-12-18T10:26:03.430Z,27.58
2022-12-18T10:28:31.594Z,24.13
2022-12-18T10:30:58.760Z,27.63
2022-12-18T10:33:30.286Z,25.33
2022-12-18T10:35:56.961Z,25.77
2022-12-18T10:38:27.333Z,26.63
2022-12-18T10:41:02.596Z,27.42
2022-12-18T10:43:34.615Z,28.92
2022-12-18T10:46:06.655Z,26.75
2022-12-18T10:48:37.229Z,28.50
2022-12-18T10:51:12.707Z,30.80
2022-12-18T10:53:42.918Z,30.17
2022-12-18T10:56:10.058Z,29.63
2022-12-18T10:58:39.004Z,30.50
2022-12-18T11:01:18.674Z,29.08
2022-12-18T11:04:02.993Z,27.77
2022-12-18T11:06:30.634Z,28.08
2022-12-18T11:09:13.245Z,28.55
2022-12-18T11:11:41.146Z,26.30
2022-12-18T11:14:26.157Z,27.55
2022-12-18T11:19:41.980Z,25.85
2022-12-18T11:22:22.329Z,29.42
2022-12-18T11:25:29.980Z,25.48
2022-12-18T11:27:59.847Z,28.38
2022-12-18T11:30:33.638Z,24.83
2022-12-18T11:33:07.456Z,28.00
2022-12-18T11:35:54.403Z,27.20
2022-12-18T11:38:36.161Z,27.60
2022-12-18T11:42:09.893Z,24.98
2022-12-18T11:44:46.135Z,27.05
2022-12-18T11:47:38.868Z,26.70
2022-12-18T11:50:14.012Z,28.20
2022-12-18T11:52:41.853Z,27.17
2022-12-18T11:55:38.030Z,30.33
2022-12-18T11:58:12.368Z,27.63
2022-12-18T12:00:41.152Z,29.40
2022-12-18T12:03:24.816Z,27.95
2022-12-18T12:06:01.709Z,28.70
2022-12-18T12:08:54.235Z,29.52
2022-12-18T12:11:30.934Z,28.48
2022-12-18T12:14:27.318Z,28.25
2022-12-18T12:17:06.823Z,27.10
2022-12-18T12:19:38.581Z,26.67
2022-12-18T12:22:36.435Z,27.13
2022-12-18T12:25:12.155Z,27.23
2022-12-18T12:27:53.474Z,26.50
2022-12-18T12:30:23.651Z,26.15
2022-12-18T12:33:01.115Z,27.25
2022-12-18T12:35:49.677Z,27.52
2022-12-18T12:38:27.900Z,25.88
2022-12-18T12:41:04.873Z,26.20
2022-12-18T12:43:50.463Z,27.15
2022-12-18T12:46:20.896Z,27.95
2022-12-18T12:48:55.255Z,25.58
2022-12-18T12:51:23.871Z,27.25
2022-12-18T12:53:51.451Z,26.75
2022-12-18T12:56:20.857Z,26.60
2022-12-18T12:59:05.343Z,27.40
2022-12-18T13:01:44.048Z,26.25
2022-12-18T13:04:16.445Z,27.67
2022-12-18T13:06:47.502Z,28.30
2022-12-18T13:09:14.767Z,27.80
2022-12-18T13:12:04.969Z,25.92
2022-12-18T13:14:33.495Z,27.10
2022-12-18T13:17:22.222Z,24.48
2022-12-18T13:20:13.318Z,26.23
2022-12-18T13:22:46.311Z,25.08
2022-12-18T13:25:30.425Z,28.75
2022-12-18T13:27:57.418Z,25.25
2022-12-18T13:30:44.868Z,24.52
2022-12-18T13:33:18.122Z,24.90
2022-12-18T13:35:48.139Z,26.50
2022-12-18T13:38:33.368Z,25.10
2022-12-18T13:41:01.226Z,25.42
2022-12-18T13:43:30.328Z,25.45
2022-12-18T13:46:03.053Z,25.45
2022-12-18T13:48:33.889Z,26.93
2022-12-18T13:51:11.783Z,24.10
2022-12-18T13:53:44.249Z,25.25
2022-12-18T13:56:17.510Z,24.60
2022-12-18T13:58:44.374Z,23.42
2022-12-18T14:01:24.868Z,25.55
2022-12-18T14:03:51.599Z,26.77
2022-12-18T14:06:18.406Z,25.65
2022-12-18T14:08:45.599Z,26.48
2022-12-18T14:11:23.140Z,26.30
2022-12-18T14:13:50.301Z,26.80
2022-12-18T14:16:18.388Z,27.35
2022-12-18T14:19:01.950Z,27.08
2022-12-18T14:21:36.030Z,27.38
2022-12-18T14:24:14.159Z,27.23
2022-12-18T14:26:41.964Z,26.35
2022-12-18T14:29:29.540Z,26.90
2022-12-18T14:32:14.972Z,27.80
2022-12-18T14:34:50.890Z,28.77
2022-12-18T14:37:21.914Z,28.10
2022-12-18T14:40:10.460Z,29.05
2022-12-18T14:42:38.198Z,28.77
2022-12-18T14:45:39.179Z,29.17
2022-12-18T14:48:36.800Z,26.00
2022-12-18T14:51:11.787Z,28.67
2022-12-18T14:53:49.152Z,27.98
2022-12-18T14:56:29.200Z,27.50
2022-12-18T14:59:04.509Z,28.95
2022-12-18T15:01:39.952Z,27.20
2022-12-18T15:04:25.990Z,28.63
2022-12-18T15:07:14.500Z,28.38
2022-12-18T15:09:42.964Z,28.35
2022-12-18T15:12:48.688Z,28.40
2022-12-18T15:15:35.024Z,27.95
2022-12-18T15:18:03.270Z,29.77
2022-12-18T15:20:33.102Z,30.33
2022-12-18T15:23:00.146Z,28.13
2022-12-18T15:25:27.228Z,29.52
2022-12-18T15:27:54.301Z,29.75
2022-12-18T15:30:22.814Z,29.48
2022-12-18T15:32:50.235Z,27.45
2022-12-18T15:35:19.003Z,28.55
2022-12-18T15:37:46.191Z,25.98
2022-12-18T15:40:14.753Z,30.38
2022-12-18T15:43:03.405Z,30.10
2022-12-18T15:45:30.540Z,27.73
2022-12-18T15:47:57.920Z,28.38
2022-12-18T15:50:25.200Z,30.00
2022-12-18T15:52:53.941Z,28.63
2022-12-18T15:55:41.210Z,29.45
2022-12-18T15:58:09.814Z,29.38
2022-12-18T16:00:38.798Z,31.05
2022-12-18T16:03:06.448Z,30.27
2022-12-18T16:05:33.977Z,31.80
2022-12-18T16:08:00.576Z,32.13
2022-12-18T16:10:27.728Z,29.25
2022-12-18T16:12:54.653Z,29.38
2022-12-18T16:15:24.801Z,30.83
2022-12-18T16:17:52.835Z,30.15
2022-12-18T16:20:21.625Z,30.00
2022-12-18T16:22:49.267Z,31.63
2022-12-18T16:25:26.611Z,31.48
2022-12-18T16:27:55.964Z,30.10
2022-12-18T16:30:24.509Z,30.13
2022-12-18T16:32:53.026Z,29.17
2022-12-18T16:35:20.141Z,29.65
2022-12-18T16:37:47.172Z,32.10
2022-12-18T16:40:15.421Z,28.55
2022-12-18T16:42:43.150Z,30.80
2022-12-18T16:45:11.481Z,32.53
2022-12-18T16:47:38.550Z,30.92
2022-12-18T16:50:06.121Z,30.55
2022-12-18T16:52:33.189Z,30.90
2022-12-18T16:55:00.255Z,32.33
2022-12-18T16:57:27.835Z,31.23
2022-12-18T16:59:57.643Z,32.88
2022-12-18T17:02:28.241Z,33.20
2022-12-18T17:04:56.506Z,31.83
2022-12-18T17:07:24.085Z,31.75
2022-12-18T17:09:51.292Z,31.30
2022-12-18T17:12:18.738Z,31.92
2022-12-18T17:14:45.949Z,32.80
2022-12-18T17:17:22.600Z,33.35
2022-12-18T17:19:50.504Z,33.47
2022-12-18T17:22:17.555Z,35.03
2022-12-18T17:24:44.634Z,33.35
2022-12-18T17:27:11.707Z,33.35
2022-12-18T17:29:43.881Z,33.15
2022-12-18T17:32:13.762Z,35.53
2022-12-18T17:34:40.905Z,34.30
2022-12-18T17:37:08.100Z,32.83
2022-12-18T17:39:35.220Z,34.15
2022-12-18T17:42:02.224Z,32.15
2022-12-18T17:44:29.284Z,33.80
2022-12-18T17:46:56.560Z,32.97
2022-12-18T17:49:23.671Z,35.67
2022-12-18T17:51:51.427Z,36.55
2022-12-18T17:54:18.680Z,33.67
2022-12-18T17:56:45.800Z,35.58
2022-12-18T17:59:13.558Z,36.38
2022-12-18T18:01:44.497Z,34.10
2022-12-18T18:04:12.866Z,35.85
2022-12-18T18:06:40.054Z,36.47
2022-12-18T18:09:12.536Z,34.85
2022-12-18T18:12:02.463Z,36.40
2022-12-18T18:14:29.698Z,36.50
2022-12-18T18:16:56.894Z,35.95
2022-12-18T18:19:26.932Z,36.40
2022-12-18T18:21:54.655Z,37.42
2022-12-18T18:24:23.426Z,37.88
2022-12-18T18:26:50.566Z,38.58
2022-12-18T18:29:19.398Z,38.10
2022-12-18T18:31:47.232Z,36.88
2022-12-18T18:34:15.380Z,37.83
2022-12-18T18:36:42.694Z,37.80
2022-12-18T18:39:09.955Z,37.22
2022-12-18T18:41:37.531Z,39.28
2022-12-18T18:44:04.637Z,38.38
2022-12-18T18:46:31.707Z,38.33
2022-12-18T18:48:58.708Z,37.75
2022-12-18T18:51:28.872Z,38.67
2022-12-18T18:54:00.422Z,38.63
2022-12-18T18:59:15.328Z,38.17
2022-12-18T19:01:42.549Z,38.38
2022-12-18T19:04:09.675Z,38.20
2022-12-18T19:06:36.747Z,36.65
2022-12-18T19:09:06.450Z,36.70
2022-12-18T19:11:52.418Z,75.63
2022-12-18T19:14:20.212Z,46.22
2022-12-18T19:16:47.348Z,38.35
2022-12-18T19:19:14.647Z,40.15
2022-12-18T19:21:41.783Z,38.35
2022-12-18T19:24:10.117Z,37.83
2022-12-18T19:26:37.735Z,38.25
2022-12-18T19:29:08.886Z,38.70
2022-12-18T19:31:37.218Z,40.13
2022-12-18T19:34:08.046Z,38.95
2022-12-18T19:36:36.606Z,36.83
2022-12-18T19:39:08.147Z,36.35
2022-12-18T19:41:35.385Z,38.88
2022-12-18T19:44:07.664Z,37.50
2022-12-18T19:46:36.009Z,37.80
2022-12-18T19:49:04.533Z,39.63
2022-12-18T19:51:32.753Z,39.28
2022-12-18T19:54:01.840Z,37.35
2022-12-18T19:56:33.296Z,39.58
2022-12-18T19:59:00.454Z,38.75
2022-12-18T20:01:29.960Z,37.72
2022-12-18T20:03:57.586Z,35.17
2022-12-18T20:06:32.280Z,36.97
2022-12-18T20:09:01.397Z,37.40
2022-12-18T20:11:29.580Z,39.60
2022-12-18T20:13:56.857Z,39.78
2022-12-18T20:16:23.952Z,40.28
2022-12-18T20:18:51.415Z,39.75
2022-12-18T20:21:19.536Z,38.88
2022-12-18T20:23:46.610Z,38.20
2022-12-18T20:26:13.822Z,38.33
2022-12-18T20:28:40.957Z,35.55
2022-12-18T20:31:10.377Z,39.65
2022-12-18T20:33:37.995Z,38.00
2022-12-18T20:36:06.693Z,39.50
2022-12-18T20:38:35.354Z,37.63
2022-12-18T20:41:03.398Z,36.58
2022-12-18T20:43:30.525Z,38.80
2022-12-18T20:46:01.794Z,37.17
2022-12-18T20:48:29.203Z,38.58
2022-12-18T20:51:00.184Z,39.60
2022-12-18T20:53:30.872Z,38.72
2022-12-18T20:55:58.037Z,37.85
2022-12-18T20:58:25.239Z,36.03
2022-12-18T21:01:03.056Z,36.85
2022-12-18T21:03:30.250Z,38.28
2022-12-18T21:05:57.359Z,39.25
2022-12-18T21:08:24.937Z,39.45
2022-12-18T21:10:51.968Z,39.97
2022-12-18T21:13:22.571Z,39.53
2022-12-18T21:15:49.677Z,37.15
2022-12-18T21:18:16.726Z,38.63
2022-12-18T21:20:44.026Z,39.45
2022-12-18T21:23:16.213Z,38.72
2022-12-18T21:25:43.798Z,39.43
2022-12-18T21:28:12.656Z,37.00
2022-12-18T21:30:39.774Z,36.63
2022-12-18T21:33:06.805Z,39.42
2022-12-18T21:35:33.929Z,37.03
2022-12-18T21:38:01.514Z,38.30
2022-12-18T21:40:30.847Z,40.17
2022-12-18T21:43:17.787Z,38.58
2022-12-18T21:45:45.032Z,35.90
2022-12-18T21:48:12.157Z,38.15
2022-12-18T21:50:39.138Z,41.38
2022-12-18T21:53:06.122Z,39.33
2022-12-18T21:55:33.148Z,39.70
2022-12-18T21:58:00.111Z,39.90
2022-12-18T22:00:27.099Z,40.80
2022-12-18T22:03:13.352Z,39.50
2022-12-18T22:05:41.175Z,36.90
2022-12-18T22:08:08.187Z,36.40
2022-12-18T22:10:35.434Z,36.28
2022-12-18T22:13:02.439Z,39.42
2022-12-18T22:15:29.464Z,40.17
2022-12-18T22:17:59.789Z,37.88
2022-12-18T22:20:27.655Z,36.95
2022-12-18T22:22:56.256Z,38.05
2022-12-18T22:25:23.281Z,37.58
2022-12-18T22:28:08.978Z,38.53
2022-12-18T22:30:36.262Z,37.65
2022-12-18T22:33:03.765Z,39.53
2022-12-18T22:35:30.796Z,38.65
2022-12-18T22:37:59.410Z,36.55
2022-12-18T22:40:27.126Z,38.38
2022-12-18T22:42:55.866Z,36.65
2022-12-18T22:45:22.866Z,36.95
2022-12-18T22:47:50.226Z,39.70
2022-12-18T22:50:17.251Z,38.45
2022-12-18T22:52:44.493Z,37.58
2022-12-18T22:55:11.584Z,38.08
2022-12-18T22:57:40.294Z,38.65
2022-12-18T23:00:11.301Z,36.78
2022-12-18T23:02:38.473Z,39.78
2022-12-18T23:05:05.847Z,38.75
2022-12-18T23:07:32.873Z,38.90
2022-12-18T23:10:00.961Z,35.53
2022-12-18T23:12:28.541Z,36.17
2022-12-18T23:14:55.866Z,35.13
2022-12-18T23:17:23.033Z,36.40
2022-12-18T23:19:50.053Z,36.83
2022-12-18T23:22:17.623Z,36.20
2022-12-18T23:24:44.679Z,35.60
2022-12-18T23:27:12.257Z,35.90
2022-12-18T23:29:39.775Z,35.22
2022-12-18T23:32:06.886Z,36.97
2022-12-18T23:34:33.952Z,36.28
2022-12-18T23:37:01.070Z,37.20
2022-12-18T23:39:30.010Z,35.90
2022-12-18T23:42:01.422Z,35.22
2022-12-18T23:44:28.692Z,35.25
2022-12-18T23:46:55.924Z,35.35
2022-12-18T23:49:23.401Z,37.22
2022-12-18T23:51:50.742Z,35.28
2022-12-18T23:54:22.628Z,38.47
2022-12-18T23:56:59.814Z,36.33
2022-12-18T23:59:26.790Z,35.85
